Time;durP1;ratioP1;P1;durP2;ratioP2;P2;SDS_P1;SDS_P2;PMS_P1;PMS_P2;Temp;Humidity;BMP_temperature;BMP_pressure;BME280_temperature;BME280_humidity;BME280_pressure;Samples;Min_cycle;Max_cycle;Signal;HPM_P1;HPM_P2
2023/06/04 00:00:13;;;;;;;2.05;1.65;;;;;;;;;;4999077;28;20393;-58
2023/06/04 00:02:39;;;;;;;2.00;1.65;;;;;;;;;;5016822;28;20076;-58
2023/06/04 00:05:05;;;;;;;1.58;1.48;;;;;;;;;;5016786;28;20099;-58
2023/06/04 00:07:31;;;;;;;2.88;1.77;;;;;;;;;;5016986;28;20415;-59
2023/06/04 00:09:56;;;;;;;3.55;1.63;;;;;;;;;;5016620;28;20121;-59
2023/06/04 00:12:22;;;;;;;2.08;1.60;;;;;;;;;;5016376;28;20030;-58
2023/06/04 00:14:47;;;;;;;1.98;1.60;;;;;;;;;;5016288;28;20021;-59
2023/06/04 00:17:12;;;;;;;3.90;1.67;;;;;;;;;;5016304;28;20025;-59
2023/06/04 00:19:38;;;;;;;1.50;1.40;;;;;;;;;;5016219;28;20069;-58
2023/06/04 00:22:04;;;;;;;2.55;1.70;;;;;;;;;;4998574;28;20120;-58
2023/06/04 00:24:29;;;;;;;1.80;1.65;;;;;;;;;;5016429;28;20038;-58
2023/06/04 00:26:55;;;;;;;2.15;1.60;;;;;;;;;;5016322;28;20026;-58
2023/06/04 00:29:20;;;;;;;2.90;1.58;;;;;;;;;;4998369;28;20092;-58
2023/06/04 00:31:45;;;;;;;1.50;1.40;;;;;;;;;;5016235;28;20041;-58
2023/06/04 00:34:11;;;;;;;1.90;1.73;;;;;;;;;;4998382;28;20044;-58
2023/06/04 00:36:36;;;;;;;1.67;1.55;;;;;;;;;;5016452;28;20037;-59
2023/06/04 00:39:01;;;;;;;1.75;1.40;;;;;;;;;;5015419;28;20159;-58
2023/06/04 00:41:27;;;;;;;3.08;1.38;;;;;;;;;;5015781;28;20029;-58
2023/06/04 00:43:55;;;;;;;2.50;1.58;;;;;;;;;;4998199;28;20030;-58
2023/06/04 00:46:28;;;;;;;1.50;1.40;;;;;;;;;;5016252;28;20037;-59
2023/06/04 00:48:54;;;;;;;1.80;1.67;;;;;;;;;;5015587;28;20033;-59
2023/06/04 00:51:20;;;;;;;1.67;1.58;;;;;;;;;;5015906;28;20030;-59
2023/06/04 00:53:46;;;;;;;3.65;1.70;;;;;;;;;;4981841;28;20037;-59
2023/06/04 00:56:12;;;;;;;2.45;1.70;;;;;;;;;;4997948;28;20389;-58
2023/06/04 00:58:38;;;;;;;1.88;1.77;;;;;;;;;;5015360;28;20041;-58
2023/06/04 01:01:05;;;;;;;5.68;1.92;;;;;;;;;;5015710;28;20038;-59
2023/06/04 01:03:34;;;;;;;3.22;1.58;;;;;;;;;;5015661;28;20084;-58
2023/06/04 01:06:01;;;;;;;2.72;1.40;;;;;;;;;;5015642;28;20114;-60
2023/06/04 01:08:27;;;;;;;3.50;1.70;;;;;;;;;;4997601;28;20046;-60
2023/06/04 01:10:55;;;;;;;2.95;1.80;;;;;;;;;;5015233;28;20152;-60
2023/06/04 01:13:20;;;;;;;2.38;1.80;;;;;;;;;;4997569;28;20018;-60
2023/06/04 01:15:45;;;;;;;4.40;1.70;;;;;;;;;;5015119;28;20378;-60
2023/06/04 01:18:27;;;;;;;2.30;1.60;;;;;;;;;;4997524;28;20410;-60
2023/06/04 01:20:53;;;;;;;2.30;1.58;;;;;;;;;;5015382;28;20034;-60
2023/06/04 01:23:39;;;;;;;2.97;1.70;;;;;;;;;;5015004;28;20018;-59
2023/06/04 01:26:04;;;;;;;2.05;1.40;;;;;;;;;;4997340;28;20109;-59
2023/06/04 01:28:31;;;;;;;2.63;1.75;;;;;;;;;;5015124;28;20184;-59
2023/06/04 01:30:57;;;;;;;2.10;1.70;;;;;;;;;;5014823;28;20052;-59
2023/06/04 01:33:22;;;;;;;1.80;1.70;;;;;;;;;;5014860;28;20030;-59
2023/06/04 01:35:48;;;;;;;2.33;1.50;;;;;;;;;;5015073;28;20030;-59
2023/06/04 01:38:14;;;;;;;1.88;1.70;;;;;;;;;;4995563;28;20092;-59
2023/06/04 01:40:40;;;;;;;1.65;1.48;;;;;;;;;;5012695;28;20032;-60
2023/06/04 01:43:06;;;;;;;1.85;1.40;;;;;;;;;;4994996;28;20121;-60
2023/06/04 01:45:31;;;;;;;3.33;1.48;;;;;;;;;;4995008;28;20110;-60
2023/06/04 01:47:57;;;;;;;1.63;1.52;;;;;;;;;;4994893;28;20124;-60
2023/06/04 01:50:22;;;;;;;1.48;1.33;;;;;;;;;;5011847;28;20075;-60
2023/06/04 01:52:48;;;;;;;1.42;1.30;;;;;;;;;;4995389;28;20259;-59
2023/06/04 01:55:14;;;;;;;2.33;1.40;;;;;;;;;;4996913;28;20032;-59
2023/06/04 01:57:40;;;;;;;3.35;1.40;;;;;;;;;;4996615;28;20120;-60
2023/06/04 02:00:10;;;;;;;2.17;1.27;;;;;;;;;;4996843;28;20069;-60
2023/06/04 02:02:42;;;;;;;1.75;1.27;;;;;;;;;;5014907;28;20033;-58
2023/06/04 02:05:08;;;;;;;3.33;1.20;;;;;;;;;;5014830;28;20038;-59
2023/06/04 02:07:38;;;;;;;3.45;1.27;;;;;;;;;;5014504;28;20057;-59
2023/06/04 02:10:07;;;;;;;1.25;1.15;;;;;;;;;;4996560;28;20034;-59
2023/06/04 02:12:32;;;;;;;1.67;1.10;;;;;;;;;;5014712;28;20369;-59
2023/06/04 02:14:57;;;;;;;1.40;1.30;;;;;;;;;;4996572;28;20086;-59
2023/06/04 02:17:23;;;;;;;1.52;1.30;;;;;;;;;;4996536;28;20152;-59
2023/06/04 02:19:51;;;;;;;3.13;1.60;;;;;;;;;;4996491;28;20029;-59
2023/06/04 02:22:17;;;;;;;1.50;1.17;;;;;;;;;;4996433;28;20080;-60
2023/06/04 02:24:42;;;;;;;2.13;1.50;;;;;;;;;;5014232;28;20030;-59
2023/06/04 02:27:11;;;;;;;1.40;1.20;;;;;;;;;;5014231;28;20041;-59
2023/06/04 02:29:37;;;;;;;1.25;1.13;;;;;;;;;;5014126;28;20120;-59
2023/06/04 02:32:04;;;;;;;2.00;1.30;;;;;;;;;;4996359;28;20100;-59
2023/06/04 02:34:29;;;;;;;1.10;1.00;;;;;;;;;;5014442;28;20093;-58
2023/06/04 02:36:54;;;;;;;1.50;1.40;;;;;;;;;;4996217;28;20034;-58
2023/06/04 02:39:20;;;;;;;1.67;1.23;;;;;;;;;;4996226;28;20029;-58
2023/06/04 02:41:45;;;;;;;1.45;1.27;;;;;;;;;;4996235;28;20036;-58
2023/06/04 02:44:11;;;;;;;1.55;1.35;;;;;;;;;;5013789;28;20025;-58
2023/06/04 02:46:37;;;;;;;1.48;1.20;;;;;;;;;;4996882;28;20038;-58
2023/06/04 02:49:02;;;;;;;2.65;1.35;;;;;;;;;;4996145;28;20025;-58
2023/06/04 02:51:28;;;;;;;1.55;1.45;;;;;;;;;;4996372;28;20088;-58
2023/06/04 02:53:53;;;;;;;2.95;1.23;;;;;;;;;;5013978;28;20386;-58
2023/06/04 02:56:20;;;;;;;1.40;1.27;;;;;;;;;;5013681;28;20433;-58
2023/06/04 02:58:57;;;;;;;2.55;1.50;;;;;;;;;;4995935;28;20135;-59
2023/06/04 03:01:23;;;;;;;2.10;1.20;;;;;;;;;;4997569;28;20034;-58
2023/06/04 03:03:49;;;;;;;1.58;1.23;;;;;;;;;;5000289;28;20680;-58
2023/06/04 03:06:15;;;;;;;1.77;1.38;;;;;;;;;;5017566;28;20042;-58
2023/06/04 03:08:40;;;;;;;2.08;1.27;;;;;;;;;;5018031;28;20099;-58
2023/06/04 03:11:06;;;;;;;1.45;1.35;;;;;;;;;;5017456;28;20018;-57
2023/06/04 03:13:31;;;;;;;2.17;1.45;;;;;;;;;;5017458;28;20025;-57
2023/06/04 03:16:00;;;;;;;1.70;1.33;;;;;;;;;;4999808;28;20034;-57
2023/06/04 03:18:26;;;;;;;1.52;1.25;;;;;;;;;;5017305;28;20097;-57
2023/06/04 03:20:54;;;;;;;2.88;1.45;;;;;;;;;;4999982;28;20033;-58
2023/06/04 03:23:21;;;;;;;1.30;1.20;;;;;;;;;;5017575;28;20033;-58
2023/06/04 03:25:46;;;;;;;1.85;1.45;;;;;;;;;;5017456;28;20022;-58
2023/06/04 03:28:11;;;;;;;1.58;1.40;;;;;;;;;;4999562;28;20057;-58
2023/06/04 03:30:37;;;;;;;1.13;1.10;;;;;;;;;;5000362;28;20048;-58
2023/06/04 03:33:04;;;;;;;2.28;1.30;;;;;;;;;;4999766;28;20112;-58
2023/06/04 03:35:30;;;;;;;3.10;1.45;;;;;;;;;;5017374;28;20062;-59
2023/06/04 03:37:55;;;;;;;2.03;1.40;;;;;;;;;;5017264;28;20030;-58
2023/06/04 03:40:20;;;;;;;1.13;1.02;;;;;;;;;;4999709;28;20029;-59
2023/06/04 03:42:46;;;;;;;1.55;1.45;;;;;;;;;;4999339;28;20053;-59
2023/06/04 03:45:13;;;;;;;1.55;1.45;;;;;;;;;;4999283;28;20030;-59
2023/06/04 03:47:39;;;;;;;1.50;1.40;;;;;;;;;;5016854;28;20029;-58
2023/06/04 03:50:05;;;;;;;2.22;1.48;;;;;;;;;;5016710;28;20014;-59
2023/06/04 03:52:31;;;;;;;1.42;1.33;;;;;;;;;;4999154;28;20118;-59
2023/06/04 03:54:58;;;;;;;1.60;1.50;;;;;;;;;;4999064;28;20043;-58
2023/06/04 03:57:24;;;;;;;1.50;1.40;;;;;;;;;;4999430;28;20049;-59
2023/06/04 03:59:50;;;;;;;3.55;1.45;;;;;;;;;;4999035;28;20034;-59
2023/06/04 04:02:18;;;;;;;1.48;1.38;;;;;;;;;;4998978;28;20025;-59
2023/06/04 04:04:44;;;;;;;1.70;1.60;;;;;;;;;;4998980;28;20028;-59
2023/06/04 04:07:10;;;;;;;1.98;1.35;;;;;;;;;;4998866;28;20036;-60
2023/06/04 04:09:36;;;;;;;1.80;1.30;;;;;;;;;;4998743;28;20074;-60
2023/06/04 04:12:03;;;;;;;3.10;1.58;;;;;;;;;;4998597;28;20437;-60
2023/06/04 04:14:29;;;;;;;4.80;1.50;;;;;;;;;;4998448;28;20109;-59
2023/06/04 04:16:55;;;;;;;2.55;1.42;;;;;;;;;;5016832;28;20105;-60
2023/06/04 04:19:20;;;;;;;1.73;1.55;;;;;;;;;;4998682;28;20470;-59
2023/06/04 04:21:48;;;;;;;4.72;1.50;;;;;;;;;;5020964;23;20045;-62
2023/06/04 04:24:23;;;;;;;4.32;1.30;;;;;;;;;;4998862;28;20565;-63
2023/06/04 04:26:52;;;;;;;4.05;1.35;;;;;;;;;;4998508;28;20129;-63
2023/06/04 04:29:22;;;;;;;1.33;1.20;;;;;;;;;;4998408;28;20045;-63
2023/06/04 04:31:49;;;;;;;4.60;1.30;;;;;;;;;;4998446;28;20061;-63
2023/06/04 04:34:15;;;;;;;2.13;1.35;;;;;;;;;;4998445;28;20014;-63
2023/06/04 04:36:41;;;;;;;3.58;1.38;;;;;;;;;;4998922;28;20022;-63
2023/06/04 04:39:07;;;;;;;2.42;1.40;;;;;;;;;;4998839;28;20022;-63
2023/06/04 04:41:34;;;;;;;3.33;2.08;;;;;;;;;;4998471;28;20038;-63
2023/06/04 04:44:04;;;;;;;2.13;1.52;;;;;;;;;;4998206;28;20030;-63
2023/06/04 04:46:30;;;;;;;1.70;1.20;;;;;;;;;;4998165;28;20113;-63
2023/06/04 04:48:55;;;;;;;2.13;1.33;;;;;;;;;;4998040;28;20125;-63
2023/06/04 04:51:22;;;;;;;4.03;1.30;;;;;;;;;;5015636;28;20544;-63
2023/06/04 04:53:48;;;;;;;2.08;1.25;;;;;;;;;;5015846;28;20025;-63
2023/06/04 04:56:14;;;;;;;1.52;1.35;;;;;;;;;;4997952;28;20030;-63
2023/06/04 04:58:43;;;;;;;1.67;1.30;;;;;;;;;;4997963;28;20034;-63
2023/06/04 05:01:09;;;;;;;3.78;1.33;;;;;;;;;;4997874;28;20029;-62
2023/06/04 05:03:35;;;;;;;2.38;1.27;;;;;;;;;;4997885;28;20060;-58
2023/06/04 05:06:01;;;;;;;1.40;1.30;;;;;;;;;;4981562;28;20425;-57
2023/06/04 05:08:26;;;;;;;1.48;1.27;;;;;;;;;;5015768;28;20118;-57
2023/06/04 05:10:52;;;;;;;1.92;1.17;;;;;;;;;;4997768;28;20064;-57
2023/06/04 05:13:17;;;;;;;1.30;1.00;;;;;;;;;;4998466;28;20088;-58
2023/06/04 05:15:54;;;;;;;2.38;1.20;;;;;;;;;;5015161;28;20026;-57
2023/06/04 05:18:28;;;;;;;1.20;1.20;;;;;;;;;;5015416;28;20355;-57
2023/06/04 05:21:03;;;;;;;1.45;1.10;;;;;;;;;;4997554;28;20026;-57
2023/06/04 05:23:32;;;;;;;1.30;1.20;;;;;;;;;;4997246;28;20511;-57
2023/06/04 05:26:06;;;;;;;2.08;1.55;;;;;;;;;;4997892;28;20030;-62
2023/06/04 05:28:34;;;;;;;1.80;1.45;;;;;;;;;;4997234;28;20029;-61
2023/06/04 05:31:02;;;;;;;1.45;1.35;;;;;;;;;;4981694;28;20010;-61
2023/06/04 05:33:31;;;;;;;4.70;1.60;;;;;;;;;;4997401;28;20026;-63
2023/06/04 05:36:00;;;;;;;1.52;1.38;;;;;;;;;;4997491;28;20022;-62
2023/06/04 05:38:31;;;;;;;1.02;1.02;;;;;;;;;;4997218;28;20507;-62
2023/06/04 05:41:01;;;;;;;1.58;1.25;;;;;;;;;;4997652;28;20060;-62
2023/06/04 05:43:31;;;;;;;2.72;0.95;;;;;;;;;;4981748;28;20038;-62
2023/06/04 05:45:57;;;;;;;2.70;1.30;;;;;;;;;;5010393;28;20144;-62
2023/06/04 05:48:23;;;;;;;2.53;1.10;;;;;;;;;;5013927;28;20490;-62
2023/06/04 05:50:48;;;;;;;3.83;1.55;;;;;;;;;;4997138;28;20056;-62
2023/06/04 05:53:15;;;;;;;1.38;1.27;;;;;;;;;;5012743;28;20026;-62
2023/06/04 05:55:40;;;;;;;2.45;1.25;;;;;;;;;;5012903;28;20513;-62
2023/06/04 05:58:06;;;;;;;3.92;1.10;;;;;;;;;;5012513;28;20025;-62
2023/06/04 06:00:31;;;;;;;1.70;1.00;;;;;;;;;;4996207;28;20042;-62
2023/06/04 06:02:57;;;;;;;0.95;0.95;;;;;;;;;;5013984;28;20033;-62
2023/06/04 06:05:33;;;;;;;1.10;1.00;;;;;;;;;;5011784;28;20100;-62
2023/06/04 06:07:59;;;;;;;2.78;1.20;;;;;;;;;;5013224;28;20446;-62
2023/06/04 06:10:25;;;;;;;1.60;1.10;;;;;;;;;;5011628;28;20037;-63
2023/06/04 06:12:50;;;;;;;1.10;1.00;;;;;;;;;;5011953;28;20025;-62
2023/06/04 06:15:16;;;;;;;1.00;0.85;;;;;;;;;;5010693;28;20083;-62
2023/06/04 06:17:44;;;;;;;1.10;1.00;;;;;;;;;;5009964;28;20034;-62
2023/06/04 06:20:10;;;;;;;5.55;1.20;;;;;;;;;;5010903;28;20124;-62
2023/06/04 06:22:36;;;;;;;1.35;0.98;;;;;;;;;;5023727;28;20099;-62
2023/06/04 06:25:06;;;;;;;1.33;1.00;;;;;;;;;;5013793;28;20064;-62
2023/06/04 06:27:34;;;;;;;3.22;1.00;;;;;;;;;;5014834;28;20037;-62
2023/06/04 06:30:00;;;;;;;2.35;1.15;;;;;;;;;;5014908;28;20041;-62
2023/06/04 06:32:27;;;;;;;2.70;0.98;;;;;;;;;;5023484;28;20060;-62
2023/06/04 06:34:52;;;;;;;1.20;1.08;;;;;;;;;;5030117;28;20112;-62
2023/06/04 06:37:17;;;;;;;2.08;1.08;;;;;;;;;;5032739;28;20109;-62
2023/06/04 06:39:43;;;;;;;1.50;1.00;;;;;;;;;;5033203;28;20069;-62
2023/06/04 06:42:08;;;;;;;1.40;1.10;;;;;;;;;;5015554;28;20022;-62
2023/06/04 06:44:37;;;;;;;2.05;1.02;;;;;;;;;;5015563;28;20029;-62
2023/06/04 06:47:02;;;;;;;1.42;1.00;;;;;;;;;;5015000;28;20037;-62
2023/06/04 06:49:28;;;;;;;1.48;0.90;;;;;;;;;;5033031;28;20116;-62
2023/06/04 06:51:53;;;;;;;2.13;1.20;;;;;;;;;;5033233;28;20029;-62
2023/06/04 06:54:21;;;;;;;1.42;1.33;;;;;;;;;;5033107;28;20462;-62
2023/06/04 06:56:48;;;;;;;2.25;1.02;;;;;;;;;;5033153;28;20467;-62
2023/06/04 06:59:13;;;;;;;1.42;1.10;;;;;;;;;;5033037;28;20030;-62
2023/06/04 07:01:38;;;;;;;3.05;1.20;;;;;;;;;;5033005;28;20382;-62
2023/06/04 07:04:04;;;;;;;11.27;1.27;;;;;;;;;;5033117;28;20034;-62
2023/06/04 07:06:29;;;;;;;2.30;1.20;;;;;;;;;;5032892;28;20110;-62
2023/06/04 07:08:55;;;;;;;1.20;1.00;;;;;;;;;;5032975;28;20079;-62
2023/06/04 07:11:21;;;;;;;3.55;1.17;;;;;;;;;;5032093;28;20026;-62
2023/06/04 07:13:47;;;;;;;2.10;1.02;;;;;;;;;;5032910;28;20020;-62
2023/06/04 07:16:12;;;;;;;2.70;1.10;;;;;;;;;;5032925;28;20026;-62
2023/06/04 07:18:37;;;;;;;1.33;1.10;;;;;;;;;;5032960;28;20033;-62
2023/06/04 07:21:03;;;;;;;3.50;1.10;;;;;;;;;;5015116;28;20032;-62
2023/06/04 07:23:28;;;;;;;1.50;1.15;;;;;;;;;;5014687;28;20481;-62
2023/06/04 07:25:53;;;;;;;2.65;1.00;;;;;;;;;;5032941;28;20071;-62
2023/06/04 07:28:19;;;;;;;2.47;1.23;;;;;;;;;;5032685;28;20090;-62
2023/06/04 07:30:47;;;;;;;2.60;1.20;;;;;;;;;;5032428;28;20037;-58
2023/06/04 07:33:12;;;;;;;1.23;1.10;;;;;;;;;;5033362;28;20017;-58
2023/06/04 07:35:38;;;;;;;2.17;1.45;;;;;;;;;;5033248;28;20080;-58
2023/06/04 07:38:03;;;;;;;1.25;1.15;;;;;;;;;;5032505;28;20025;-58
2023/06/04 07:40:28;;;;;;;3.03;1.33;;;;;;;;;;5032519;28;20453;-58
2023/06/04 07:42:54;;;;;;;2.17;1.30;;;;;;;;;;5032763;28;20029;-58
2023/06/04 07:45:19;;;;;;;2.65;0.88;;;;;;;;;;5032711;28;20037;-58
2023/06/04 07:47:45;;;;;;;3.30;1.10;;;;;;;;;;5032779;28;20033;-59
2023/06/04 07:50:11;;;;;;;1.70;1.10;;;;;;;;;;5035990;28;20034;-57
2023/06/04 07:52:36;;;;;;;2.05;1.17;;;;;;;;;;5018385;28;20033;-57
2023/06/04 07:55:01;;;;;;;1.58;1.48;;;;;;;;;;5035496;28;20025;-58
2023/06/04 07:57:28;;;;;;;2.40;1.13;;;;;;;;;;5035962;28;20120;-58
2023/06/04 07:59:54;;;;;;;4.28;1.38;;;;;;;;;;5035716;28;20037;-58
2023/06/04 08:02:19;;;;;;;4.40;1.35;;;;;;;;;;5035585;28;20040;-59
2023/06/04 08:04:46;;;;;;;2.95;1.30;;;;;;;;;;5018136;28;20037;-59
2023/06/04 08:07:12;;;;;;;1.58;1.02;;;;;;;;;;5035986;28;20124;-59
2023/06/04 08:09:38;;;;;;;6.63;1.52;;;;;;;;;;5035942;28;20654;-59
2023/06/04 08:12:03;;;;;;;3.03;1.15;;;;;;;;;;5035804;28;20020;-59
2023/06/04 08:14:28;;;;;;;1.27;1.17;;;;;;;;;;5035527;28;20404;-59
2023/06/04 08:16:54;;;;;;;1.40;1.10;;;;;;;;;;5035720;28;20030;-59
2023/06/04 08:19:19;;;;;;;2.70;1.10;;;;;;;;;;5035638;28;20025;-59
2023/06/04 08:21:45;;;;;;;2.47;1.00;;;;;;;;;;5036113;28;20486;-59
2023/06/04 08:24:11;;;;;;;3.65;1.30;;;;;;;;;;5036228;28;20029;-59
2023/06/04 08:26:36;;;;;;;1.40;1.30;;;;;;;;;;5036185;28;20384;-59
2023/06/04 08:29:02;;;;;;;1.50;1.17;;;;;;;;;;5018125;28;20426;-59
2023/06/04 08:31:27;;;;;;;1.30;0.80;;;;;;;;;;5036046;28;20553;-57
2023/06/04 08:33:52;;;;;;;1.98;1.10;;;;;;;;;;5035742;28;20053;-56
2023/06/04 08:36:18;;;;;;;4.00;1.42;;;;;;;;;;5035847;28;20381;-56
2023/06/04 08:38:43;;;;;;;1.95;1.23;;;;;;;;;;5036329;28;20457;-57
2023/06/04 08:41:28;;;;;;;1.20;1.10;;;;;;;;;;5036420;28;20072;-56
2023/06/04 08:43:56;;;;;;;3.28;1.15;;;;;;;;;;5035869;28;20065;-56
2023/06/04 08:46:22;;;;;;;3.22;1.33;;;;;;;;;;5035482;28;20057;-56
2023/06/04 08:48:49;;;;;;;3.67;1.35;;;;;;;;;;5035665;28;20075;-56
2023/06/04 08:51:15;;;;;;;3.25;1.30;;;;;;;;;;5035755;28;20064;-56
2023/06/04 08:53:41;;;;;;;2.80;1.10;;;;;;;;;;5032928;22;20105;-63
2023/06/04 08:56:07;;;;;;;1.20;1.10;;;;;;;;;;5015887;28;20018;-62
2023/06/04 08:58:34;;;;;;;2.83;0.98;;;;;;;;;;5013801;28;20397;-62
2023/06/04 09:01:00;;;;;;;2.03;1.40;;;;;;;;;;5014698;28;20026;-62
2023/06/04 09:03:31;;;;;;;1.50;1.10;;;;;;;;;;5015118;28;20041;-62
2023/06/04 09:05:57;;;;;;;1.50;1.10;;;;;;;;;;5014881;28;20018;-62
2023/06/04 09:08:22;;;;;;;2.25;1.40;;;;;;;;;;4996919;28;20393;-63
2023/06/04 09:10:51;;;;;;;1.95;1.25;;;;;;;;;;5014462;28;20018;-63
2023/06/04 09:13:18;;;;;;;1.17;1.00;;;;;;;;;;4997494;28;20026;-63
2023/06/04 09:15:43;;;;;;;1.88;1.25;;;;;;;;;;5015448;28;20466;-62
2023/06/04 09:18:08;;;;;;;2.25;1.30;;;;;;;;;;5015424;28;20029;-63
2023/06/04 09:20:33;;;;;;;1.75;0.90;;;;;;;;;;5015103;28;20046;-63
2023/06/04 09:22:59;;;;;;;3.78;1.17;;;;;;;;;;5015628;28;20026;-63
2023/06/04 09:25:25;;;;;;;1.20;1.02;;;;;;;;;;5015000;28;20033;-62
2023/06/04 09:27:51;;;;;;;1.13;0.90;;;;;;;;;;5015044;28;20064;-62
2023/06/04 09:30:16;;;;;;;1.73;1.10;;;;;;;;;;5015171;28;20037;-63
2023/06/04 09:32:42;;;;;;;2.65;1.42;;;;;;;;;;5015218;28;20030;-63
2023/06/04 09:38:26;;;;;;;2.00;0.98;;;;;;;;;;5040747;22;20088;-56
2023/06/04 09:40:52;;;;;;;4.00;1.27;;;;;;;;;;4997439;28;20370;-56
2023/06/04 09:43:23;;;;;;;3.90;1.10;;;;;;;;;;5015017;28;20029;-56
2023/06/04 09:45:49;;;;;;;1.30;1.20;;;;;;;;;;4981201;28;20462;-56
2023/06/04 09:48:23;;;;;;;1.30;1.20;;;;;;;;;;5014619;28;20033;-56
2023/06/04 09:50:48;;;;;;;1.95;1.42;;;;;;;;;;5014929;28;20429;-56
2023/06/04 09:53:18;;;;;;;1.98;0.90;;;;;;;;;;4996886;28;20030;-56
2023/06/04 09:55:43;;;;;;;1.23;1.10;;;;;;;;;;4997310;28;20101;-56
2023/06/04 09:58:10;;;;;;;1.10;1.00;;;;;;;;;;5014469;28;20549;-56
2023/06/04 10:00:36;;;;;;;2.80;1.30;;;;;;;;;;5014443;28;20149;-56
2023/06/04 10:03:02;;;;;;;1.42;0.98;;;;;;;;;;5015233;28;20064;-56
2023/06/04 10:05:29;;;;;;;3.30;1.20;;;;;;;;;;5014884;28;20033;-56
2023/06/04 10:07:57;;;;;;;2.45;1.00;;;;;;;;;;5014575;28;20052;-56
2023/06/04 10:10:25;;;;;;;1.67;1.15;;;;;;;;;;4995730;28;20531;-56
2023/06/04 10:12:54;;;;;;;2.88;1.00;;;;;;;;;;5013876;28;20574;-56
2023/06/04 10:15:20;;;;;;;1.30;1.20;;;;;;;;;;4996624;28;20025;-56
2023/06/04 10:17:47;;;;;;;2.08;1.88;;;;;;;;;;5014406;28;20525;-56
2023/06/04 10:20:13;;;;;;;4.65;1.80;;;;;;;;;;5014401;28;20389;-56
2023/06/04 10:22:38;;;;;;;1.60;1.23;;;;;;;;;;4996427;28;20033;-56
2023/06/04 10:25:04;;;;;;;1.38;0.98;;;;;;;;;;5014012;28;20057;-56
2023/06/04 10:27:35;;;;;;;2.20;1.15;;;;;;;;;;5014037;28;20494;-56
2023/06/04 10:30:00;;;;;;;4.05;1.30;;;;;;;;;;5013942;28;20033;-56
2023/06/04 10:32:29;;;;;;;1.98;1.33;;;;;;;;;;5014216;28;20068;-56
2023/06/04 10:34:55;;;;;;;2.45;1.38;;;;;;;;;;5013928;28;20535;-56
2023/06/04 10:37:24;;;;;;;3.20;1.30;;;;;;;;;;5013805;28;20050;-56
2023/06/04 10:39:50;;;;;;;1.08;0.98;;;;;;;;;;5014189;28;20389;-56
2023/06/04 10:42:18;;;;;;;2.88;1.25;;;;;;;;;;5013893;28;20033;-56
2023/06/04 10:44:45;;;;;;;1.35;1.20;;;;;;;;;;4996658;28;20045;-56
2023/06/04 10:47:27;;;;;;;1.30;1.20;;;;;;;;;;5014063;28;20034;-56
2023/06/04 10:49:54;;;;;;;3.58;1.17;;;;;;;;;;5013987;28;20053;-56
2023/06/04 10:52:19;;;;;;;1.38;1.27;;;;;;;;;;5014027;28;20014;-56
2023/06/04 10:54:45;;;;;;;3.08;1.30;;;;;;;;;;5014009;28;20033;-56
2023/06/04 10:57:12;;;;;;;4.80;1.35;;;;;;;;;;5014278;28;20078;-56
2023/06/04 10:59:37;;;;;;;5.13;1.27;;;;;;;;;;4996228;28;20044;-56
2023/06/04 11:02:09;;;;;;;2.15;1.60;;;;;;;;;;5013959;28;20029;-56
2023/06/04 11:04:36;;;;;;;2.63;1.40;;;;;;;;;;5013944;28;20041;-56
2023/06/04 11:07:08;;;;;;;1.30;1.20;;;;;;;;;;5013916;28;20058;-56
2023/06/04 11:09:35;;;;;;;3.50;1.23;;;;;;;;;;5013817;28;20121;-56
2023/06/04 11:12:00;;;;;;;2.97;1.40;;;;;;;;;;5013614;28;20036;-56
2023/06/04 11:14:26;;;;;;;1.92;1.38;;;;;;;;;;5013870;28;20025;-56
2023/06/04 11:16:51;;;;;;;3.30;1.10;;;;;;;;;;5013780;28;20022;-56
2023/06/04 11:19:17;;;;;;;1.33;1.10;;;;;;;;;;5013800;28;20030;-56
2023/06/04 11:21:43;;;;;;;1.30;1.20;;;;;;;;;;5013858;28;20061;-56
2023/06/04 11:24:08;;;;;;;3.47;1.33;;;;;;;;;;5017864;28;20040;-56
2023/06/04 11:26:34;;;;;;;2.67;1.40;;;;;;;;;;5017283;28;20025;-56
2023/06/04 11:29:00;;;;;;;2.10;1.13;;;;;;;;;;5017183;28;20030;-56
2023/06/04 11:31:26;;;;;;;1.40;1.30;;;;;;;;;;5017510;28;20025;-56
2023/06/04 11:33:51;;;;;;;1.83;1.23;;;;;;;;;;5017136;28;20030;-56
2023/06/04 11:36:30;;;;;;;2.50;1.30;;;;;;;;;;5017113;28;20073;-56
2023/06/04 11:38:59;;;;;;;1.73;1.27;;;;;;;;;;5017354;28;20038;-56
2023/06/04 11:41:29;;;;;;;4.10;1.42;;;;;;;;;;5053605;22;20108;-56
2023/06/04 11:43:56;;;;;;;2.35;1.55;;;;;;;;;;5030808;22;20065;-56
2023/06/04 11:46:22;;;;;;;1.50;1.30;;;;;;;;;;5017455;28;20036;-56
2023/06/04 11:48:47;;;;;;;2.78;1.33;;;;;;;;;;5016781;28;20119;-56
2023/06/04 11:51:13;;;;;;;1.60;1.10;;;;;;;;;;5016825;28;20033;-56
2023/06/04 11:53:38;;;;;;;1.63;1.23;;;;;;;;;;5017141;28;20038;-56
2023/06/04 11:56:04;;;;;;;2.85;1.27;;;;;;;;;;5017000;28;20026;-56
2023/06/04 11:58:30;;;;;;;2.65;1.27;;;;;;;;;;5016636;28;20030;-57
2023/06/04 12:00:57;;;;;;;3.38;1.50;;;;;;;;;;4999128;28;20030;-56
2023/06/04 12:03:33;;;;;;;1.95;1.20;;;;;;;;;;5016618;28;20018;-56
2023/06/04 12:05:58;;;;;;;2.50;1.35;;;;;;;;;;5016817;28;20454;-56
2023/06/04 12:08:24;;;;;;;1.63;1.20;;;;;;;;;;5017025;28;20056;-56
2023/06/04 12:10:50;;;;;;;1.98;1.02;;;;;;;;;;5016695;28;20071;-56
2023/06/04 12:13:16;;;;;;;3.08;1.40;;;;;;;;;;5016392;28;20113;-56
2023/06/04 12:15:41;;;;;;;1.50;1.13;;;;;;;;;;5016632;28;20157;-56
2023/06/04 12:18:07;;;;;;;1.50;1.40;;;;;;;;;;5016902;28;20026;-56
2023/06/04 12:20:32;;;;;;;1.00;0.90;;;;;;;;;;5016259;28;20034;-56
2023/06/04 12:22:57;;;;;;;3.33;1.38;;;;;;;;;;5016499;28;20040;-56
2023/06/04 12:25:24;;;;;;;1.50;1.17;;;;;;;;;;5016425;28;20116;-56
2023/06/04 12:27:50;;;;;;;1.50;1.27;;;;;;;;;;5016126;28;20037;-56
2023/06/04 12:30:15;;;;;;;3.83;1.50;;;;;;;;;;5016324;28;20032;-56
2023/06/04 12:32:42;;;;;;;2.13;1.27;;;;;;;;;;5015968;28;20022;-56
2023/06/04 12:35:07;;;;;;;3.42;1.30;;;;;;;;;;5015340;28;20026;-56
2023/06/04 12:37:33;;;;;;;2.95;1.60;;;;;;;;;;5016474;28;20030;-56
2023/06/04 12:39:58;;;;;;;1.25;1.10;;;;;;;;;;5016205;28;20113;-56
2023/06/04 12:42:23;;;;;;;2.67;1.50;;;;;;;;;;5015701;28;20069;-56
2023/06/04 12:44:49;;;;;;;2.70;1.30;;;;;;;;;;4998374;28;20038;-56
2023/06/04 12:47:16;;;;;;;1.40;1.30;;;;;;;;;;5015818;28;20026;-56
2023/06/04 12:49:42;;;;;;;1.70;1.60;;;;;;;;;;5015673;28;20077;-56
2023/06/04 12:52:07;;;;;;;3.90;1.40;;;;;;;;;;5015694;28;20060;-56
2023/06/04 12:54:32;;;;;;;1.80;1.50;;;;;;;;;;5016233;28;20018;-56
2023/06/04 12:56:58;;;;;;;1.60;1.50;;;;;;;;;;5015640;28;20557;-56
2023/06/04 12:59:27;;;;;;;3.15;1.13;;;;;;;;;;5015566;28;20034;-56
2023/06/04 13:01:53;;;;;;;1.55;1.20;;;;;;;;;;5015785;28;20053;-56
2023/06/04 13:04:18;;;;;;;1.38;1.27;;;;;;;;;;5015778;28;20038;-56
2023/06/04 13:06:45;;;;;;;1.50;1.05;;;;;;;;;;4997776;28;20095;-57
2023/06/04 13:09:11;;;;;;;2.60;1.58;;;;;;;;;;5015333;28;20028;-56
2023/06/04 13:11:40;;;;;;;2.33;1.08;;;;;;;;;;5015329;28;20117;-56
2023/06/04 13:14:06;;;;;;;4.43;1.27;;;;;;;;;;5015552;28;20036;-56
2023/06/04 13:16:32;;;;;;;1.75;1.33;;;;;;;;;;5015164;28;20088;-56
2023/06/04 13:18:58;;;;;;;2.63;1.25;;;;;;;;;;5015713;28;20018;-56
2023/06/04 13:21:24;;;;;;;1.88;1.27;;;;;;;;;;5015711;28;20046;-63
2023/06/04 13:23:50;;;;;;;4.10;1.50;;;;;;;;;;5028029;23;20498;-56
2023/06/04 13:26:33;;;;;;;2.00;1.40;;;;;;;;;;5031449;22;20112;31
2023/06/04 13:29:03;;;;;;;4.00;1.10;;;;;;;;;;5013496;28;20045;-56
2023/06/04 13:31:28;;;;;;;3.03;1.27;;;;;;;;;;5015250;28;20018;-56
2023/06/04 13:33:54;;;;;;;1.50;1.40;;;;;;;;;;5014901;28;20466;-56
2023/06/04 13:36:19;;;;;;;1.30;1.20;;;;;;;;;;5014874;28;20076;-56
2023/06/04 13:38:44;;;;;;;3.47;1.38;;;;;;;;;;5015370;28;20539;-56
2023/06/04 13:41:10;;;;;;;1.60;1.50;;;;;;;;;;5015067;28;20041;-56
2023/06/04 13:43:35;;;;;;;2.10;1.50;;;;;;;;;;5014759;28;20076;-56
2023/06/04 13:46:00;;;;;;;1.33;1.05;;;;;;;;;;4996115;28;20354;-56
2023/06/04 13:48:26;;;;;;;2.30;1.30;;;;;;;;;;5014685;28;20026;-56
2023/06/04 13:50:52;;;;;;;3.03;1.17;;;;;;;;;;4997002;28;20041;-56
2023/06/04 13:53:17;;;;;;;2.95;1.52;;;;;;;;;;5014895;28;20105;-56
2023/06/04 13:55:43;;;;;;;2.90;1.60;;;;;;;;;;5014565;28;20124;-56
2023/06/04 13:58:08;;;;;;;2.38;1.52;;;;;;;;;;5014533;28;20504;-56
2023/06/04 14:00:34;;;;;;;1.52;1.30;;;;;;;;;;5014696;28;20030;-56
2023/06/04 14:02:59;;;;;;;2.35;1.55;;;;;;;;;;5014674;28;20029;-56
2023/06/04 14:05:27;;;;;;;4.70;1.30;;;;;;;;;;5014382;28;20073;-56
2023/06/04 14:07:52;;;;;;;2.50;1.30;;;;;;;;;;5014575;28;20381;-56
2023/06/04 14:10:17;;;;;;;2.80;1.45;;;;;;;;;;5014200;28;20026;-56
2023/06/04 14:12:44;;;;;;;1.30;1.20;;;;;;;;;;5014235;28;20060;-56
2023/06/04 14:15:10;;;;;;;2.10;1.30;;;;;;;;;;5014511;28;20022;-56
2023/06/04 14:17:36;;;;;;;2.17;1.30;;;;;;;;;;4996565;28;20049;-56
2023/06/04 14:20:06;;;;;;;1.50;1.40;;;;;;;;;;5014413;28;20469;-56
2023/06/04 14:22:32;;;;;;;1.50;1.40;;;;;;;;;;5015193;28;20413;-56
2023/06/04 14:24:59;;;;;;;2.10;1.30;;;;;;;;;;5014385;28;20038;-56
2023/06/04 14:27:24;;;;;;;1.55;1.40;;;;;;;;;;5013883;28;20493;-56
2023/06/04 14:29:50;;;;;;;1.50;1.10;;;;;;;;;;4996365;28;20030;-56
2023/06/04 14:32:15;;;;;;;1.50;1.30;;;;;;;;;;5014252;28;20029;-56
2023/06/04 14:34:40;;;;;;;2.53;1.38;;;;;;;;;;5013973;28;20064;-56
2023/06/04 14:37:05;;;;;;;7.10;2.85;;;;;;;;;;5013931;28;20026;-56
2023/06/04 14:39:31;;;;;;;2.78;1.65;;;;;;;;;;5014211;28;20432;-56
2023/06/04 14:41:56;;;;;;;1.73;1.60;;;;;;;;;;5013868;28;20421;-56